createdAt,value
2017-12-09T00:01:49.751Z,4.70
2017-12-09T00:04:19.876Z,4.70
2017-12-09T00:06:48.132Z,5.20
2017-12-09T00:09:16.416Z,4.90
2017-12-09T00:11:44.698Z,4.90
2017-12-09T00:14:12.945Z,5.00
2017-12-09T00:16:41.208Z,4.80
2017-12-09T00:19:09.534Z,5.00
2017-12-09T00:21:37.764Z,4.50
2017-12-09T00:24:06.048Z,4.80
2017-12-09T00:26:34.412Z,4.50
2017-12-09T00:29:02.672Z,4.50
2017-12-09T00:31:30.929Z,4.70
2017-12-09T00:33:59.201Z,4.80
2017-12-09T00:36:27.500Z,4.80
2017-12-09T00:38:56.537Z,4.70
2017-12-09T00:41:24.802Z,4.80
2017-12-09T00:43:53.289Z,4.70
2017-12-09T00:46:21.521Z,4.60
2017-12-09T00:48:50.528Z,4.60
2017-12-09T00:51:18.824Z,4.60
2017-12-09T00:53:47.080Z,4.60
2017-12-09T00:56:15.334Z,4.90
2017-12-09T00:58:43.624Z,4.80
2017-12-09T01:01:12.729Z,5.00
2017-12-09T01:03:40.979Z,4.80
2017-12-09T01:06:09.267Z,4.70
2017-12-09T01:08:37.533Z,4.70
2017-12-09T01:11:05.773Z,4.80
2017-12-09T01:13:34.070Z,4.80
2017-12-09T01:19:09.227Z,5.20
2017-12-09T01:21:37.462Z,4.80
2017-12-09T01:24:05.884Z,4.70
2017-12-09T01:26:34.228Z,4.70
2017-12-09T01:29:04.726Z,4.90
2017-12-09T01:31:32.988Z,4.80
2017-12-09T01:34:01.268Z,4.90
2017-12-09T01:36:29.544Z,5.00
2017-12-09T01:38:57.790Z,4.80
2017-12-09T01:41:26.268Z,4.70
2017-12-09T01:43:54.524Z,4.80
2017-12-09T01:46:22.772Z,4.80
2017-12-09T01:48:51.264Z,4.80
2017-12-09T01:51:19.789Z,4.80
2017-12-09T01:53:48.041Z,4.70
2017-12-09T01:56:17.117Z,4.70
2017-12-09T01:58:46.332Z,4.70
2017-12-09T02:01:14.598Z,4.60
2017-12-09T02:03:43.205Z,4.50
2017-12-09T02:06:12.466Z,4.60
2017-12-09T02:08:40.754Z,4.60
2017-12-09T02:11:09.241Z,4.60
2017-12-09T02:13:37.489Z,4.50
2017-12-09T02:16:05.746Z,4.40
2017-12-09T02:18:34.943Z,4.50
2017-12-09T02:21:03.216Z,4.60
2017-12-09T02:23:31.678Z,4.70
2017-12-09T02:25:59.969Z,4.80
2017-12-09T02:28:29.262Z,4.70
2017-12-09T02:30:58.334Z,4.70
2017-12-09T02:33:27.577Z,4.70
2017-12-09T02:35:56.803Z,4.80
2017-12-09T02:38:25.104Z,4.70
2017-12-09T02:40:53.526Z,4.80
2017-12-09T02:43:22.685Z,4.90
2017-12-09T02:45:50.987Z,4.80
2017-12-09T02:48:20.158Z,4.90
2017-12-09T02:50:49.073Z,4.80
2017-12-09T02:53:17.352Z,4.90
2017-12-09T02:55:45.612Z,4.80
2017-12-09T02:58:14.932Z,5.00
2017-12-09T03:00:43.238Z,4.80
2017-12-09T03:03:11.508Z,4.80
2017-12-09T03:05:39.761Z,4.60
2017-12-09T03:08:08.044Z,4.60
2017-12-09T03:10:37.241Z,4.60
2017-12-09T03:13:06.299Z,4.60
2017-12-09T03:15:34.561Z,4.60
2017-12-09T03:18:03.605Z,4.50
2017-12-09T03:20:31.900Z,4.50
2017-12-09T03:23:00.162Z,4.60
2017-12-09T03:25:28.466Z,4.60
2017-12-09T03:27:56.749Z,4.50
2017-12-09T03:30:24.989Z,4.50
2017-12-09T03:32:54.080Z,4.60
2017-12-09T03:35:22.335Z,4.50
2017-12-09T03:37:51.613Z,4.60
2017-12-09T03:40:21.403Z,4.50
2017-12-09T03:42:50.657Z,4.60
2017-12-09T03:45:19.870Z,4.60
2017-12-09T03:47:48.901Z,4.60
2017-12-09T03:50:17.148Z,4.60
2017-12-09T03:52:45.421Z,4.50
2017-12-09T03:55:13.680Z,4.70
2017-12-09T04:00:03.200Z,4.50
2017-12-09T04:02:32.086Z,4.50
2017-12-09T04:05:01.140Z,4.30
2017-12-09T04:07:29.740Z,4.50
2017-12-09T04:09:58.907Z,4.40
2017-12-09T04:12:27.968Z,4.30
2017-12-09T04:14:56.375Z,4.40
2017-12-09T04:17:24.621Z,4.10
2017-12-09T04:19:52.896Z,4.40
2017-12-09T04:22:23.112Z,4.30
2017-12-09T04:24:51.373Z,4.30
2017-12-09T04:27:19.648Z,4.20
2017-12-09T04:29:47.928Z,4.30
2017-12-09T04:32:17.153Z,4.40
2017-12-09T04:34:45.453Z,4.30
2017-12-09T04:37:13.705Z,4.30
2017-12-09T04:39:41.952Z,4.30
2017-12-09T04:42:11.008Z,4.20
2017-12-09T04:44:39.260Z,4.20
2017-12-09T04:47:07.517Z,4.20
2017-12-09T04:49:35.778Z,4.30
2017-12-09T04:52:04.073Z,4.20
2017-12-09T04:54:32.325Z,4.10
2017-12-09T04:57:00.583Z,4.10
2017-12-09T04:59:31.369Z,4.10
2017-12-09T05:02:00.075Z,4.00
2017-12-09T05:04:30.088Z,4.10
2017-12-09T05:07:00.080Z,4.20
2017-12-09T05:09:28.380Z,4.10
2017-12-09T05:11:56.652Z,4.30
2017-12-09T05:14:24.894Z,4.40
2017-12-09T05:16:53.158Z,4.20
2017-12-09T05:19:21.620Z,4.40
2017-12-09T05:21:50.803Z,4.30
2017-12-09T05:24:19.540Z,4.30
2017-12-09T05:26:49.900Z,4.30
2017-12-09T05:29:18.172Z,4.30
2017-12-09T05:31:46.571Z,4.10
2017-12-09T05:34:14.883Z,4.10
2017-12-09T05:36:43.894Z,4.10
2017-12-09T05:39:12.926Z,4.20
2017-12-09T05:41:41.941Z,4.30
2017-12-09T05:44:10.189Z,4.30
2017-12-09T05:46:38.465Z,4.30
2017-12-09T05:49:06.742Z,4.40
2017-12-09T05:51:34.976Z,4.30
2017-12-09T05:54:03.230Z,4.30
2017-12-09T05:56:32.457Z,4.20
2017-12-09T05:59:00.732Z,4.30
2017-12-09T06:01:29.847Z,4.10
2017-12-09T06:03:58.130Z,4.30
2017-12-09T06:06:26.368Z,4.10
2017-12-09T06:08:55.398Z,4.10
2017-12-09T06:11:23.680Z,4.30
2017-12-09T06:13:51.927Z,4.50
2017-12-09T06:16:20.188Z,4.30
2017-12-09T06:18:49.296Z,4.30
2017-12-09T06:21:18.397Z,4.40
2017-12-09T06:23:47.617Z,4.30
2017-12-09T06:26:15.899Z,4.40
2017-12-09T06:28:44.393Z,4.30
2017-12-09T06:31:13.488Z,4.30
2017-12-09T06:33:41.810Z,4.00
2017-12-09T06:36:10.932Z,4.10
2017-12-09T06:38:39.197Z,4.30
2017-12-09T06:41:07.469Z,4.20
2017-12-09T06:43:35.747Z,4.30
2017-12-09T06:46:04.868Z,4.30
2017-12-09T06:48:34.665Z,4.30
2017-12-09T06:51:03.106Z,4.30
2017-12-09T06:53:31.383Z,4.40
2017-12-09T06:55:59.655Z,4.40
2017-12-09T06:58:27.909Z,4.30
2017-12-09T07:00:58.529Z,4.20
2017-12-09T07:03:26.844Z,4.20
2017-12-09T07:05:55.376Z,4.20
2017-12-09T07:08:24.496Z,4.00
2017-12-09T07:10:52.966Z,4.20
2017-12-09T07:13:21.242Z,4.00
2017-12-09T07:15:49.556Z,4.10
2017-12-09T07:18:18.027Z,4.00
2017-12-09T07:20:47.108Z,4.20
2017-12-09T07:23:15.417Z,4.30
2017-12-09T07:25:43.669Z,4.40
2017-12-09T07:28:11.936Z,4.30
2017-12-09T07:30:40.224Z,4.50
2017-12-09T07:33:10.033Z,4.40
2017-12-09T07:35:38.330Z,4.20
2017-12-09T07:38:06.721Z,4.10
2017-12-09T07:40:34.993Z,4.20
2017-12-09T07:43:03.263Z,4.30
2017-12-09T07:45:33.178Z,4.40
2017-12-09T07:48:01.461Z,4.30
2017-12-09T07:50:32.204Z,4.40
2017-12-09T07:53:00.484Z,4.30
2017-12-09T07:55:28.760Z,4.30
2017-12-09T07:57:57.900Z,4.30
2017-12-09T08:00:26.314Z,4.20
2017-12-09T08:02:54.556Z,4.30
2017-12-09T08:05:23.049Z,4.20
2017-12-09T08:07:51.300Z,4.40
2017-12-09T08:10:19.630Z,4.30
2017-12-09T08:12:47.934Z,4.60
2017-12-09T08:15:16.185Z,4.30
2017-12-09T08:17:44.616Z,4.60
2017-12-09T08:20:13.819Z,4.60
2017-12-09T08:22:42.862Z,4.70
2017-12-09T08:25:11.126Z,4.60
2017-12-09T08:27:39.410Z,4.80
2017-12-09T08:30:10.141Z,4.50
2017-12-09T08:32:38.394Z,4.60
2017-12-09T08:35:08.172Z,4.40
2017-12-09T08:37:36.656Z,4.60
2017-12-09T08:40:04.950Z,4.50
2017-12-09T08:42:33.371Z,4.50
2017-12-09T08:45:03.401Z,4.60
2017-12-09T08:47:32.431Z,4.20
2017-12-09T08:50:01.453Z,4.30
2017-12-09T08:52:29.733Z,4.30
2017-12-09T08:54:58.255Z,4.50
2017-12-09T08:57:26.557Z,4.60
2017-12-09T08:59:54.826Z,4.50
2017-12-09T09:02:23.087Z,4.90
2017-12-09T09:04:51.366Z,4.60
2017-12-09T09:07:19.775Z,4.60
2017-12-09T09:09:48.042Z,4.60
2017-12-09T09:12:16.364Z,4.70
2017-12-09T09:14:44.641Z,4.70
2017-12-09T09:17:12.893Z,4.60
2017-12-09T09:19:41.180Z,4.60
2017-12-09T09:22:10.212Z,4.50
2017-12-09T09:24:38.512Z,4.60
2017-12-09T09:27:06.966Z,4.60
2017-12-09T09:29:35.264Z,4.50
2017-12-09T09:32:03.520Z,4.50
2017-12-09T09:34:31.794Z,4.50
2017-12-09T09:37:00.108Z,4.50
2017-12-09T09:39:29.363Z,4.90
2017-12-09T09:41:58.415Z,4.80
2017-12-09T09:44:26.896Z,4.70
2017-12-09T09:46:55.140Z,4.80
2017-12-09T09:49:23.572Z,4.70
2017-12-09T09:51:51.862Z,4.70
2017-12-09T09:54:21.214Z,4.90
2017-12-09T09:56:49.619Z,5.00
2017-12-09T09:59:17.887Z,4.80
2017-12-09T10:01:46.204Z,4.80
2017-12-09T10:04:14.488Z,4.70
2017-12-09T10:06:43.530Z,4.80
2017-12-09T10:09:12.350Z,4.80
2017-12-09T10:11:41.520Z,4.90
2017-12-09T10:14:09.779Z,4.50
2017-12-09T10:16:39.012Z,4.50
2017-12-09T10:19:07.281Z,4.60
2017-12-09T10:21:36.766Z,4.60
2017-12-09T10:24:05.020Z,4.80
2017-12-09T10:26:33.292Z,4.70
2017-12-09T10:29:01.705Z,4.70
2017-12-09T10:31:29.991Z,4.80
2017-12-09T10:33:58.287Z,5.50
2017-12-09T10:36:26.568Z,5.30
2017-12-09T10:38:55.836Z,5.20
2017-12-09T10:41:24.345Z,5.10
2017-12-09T10:43:53.381Z,5.00
2017-12-09T10:46:21.668Z,5.00
2017-12-09T10:48:49.968Z,5.20
2017-12-09T10:51:19.293Z,5.00
2017-12-09T10:53:47.576Z,5.10
2017-12-09T10:56:15.853Z,5.20
2017-12-09T10:58:44.122Z,5.00
2017-12-09T11:01:13.281Z,5.00
2017-12-09T11:03:41.545Z,5.20
2017-12-09T11:06:09.800Z,4.90
2017-12-09T11:08:39.274Z,5.00
2017-12-09T11:11:08.497Z,5.20
2017-12-09T11:13:38.720Z,5.10
2017-12-09T11:16:08.813Z,5.10
2017-12-09T11:18:37.057Z,5.00
2017-12-09T11:21:05.308Z,5.10
2017-12-09T11:23:33.645Z,5.00
2017-12-09T11:26:02.831Z,5.00
2017-12-09T11:28:31.137Z,5.00
2017-12-09T11:30:59.568Z,5.10
2017-12-09T11:33:27.822Z,5.20
2017-12-09T11:35:56.152Z,5.30
2017-12-09T11:38:24.393Z,5.30
2017-12-09T11:40:53.626Z,5.20
2017-12-09T11:43:21.970Z,5.30
2017-12-09T11:45:50.230Z,5.20
2017-12-09T11:48:18.631Z,5.40
2017-12-09T11:50:47.068Z,5.20
2017-12-09T11:53:17.066Z,5.50
2017-12-09T11:55:46.309Z,5.30
2017-12-09T11:58:14.585Z,5.50
2017-12-09T12:00:42.834Z,5.50
2017-12-09T12:03:11.111Z,5.50
2017-12-09T12:05:39.789Z,5.50
2017-12-09T12:08:08.308Z,5.70
2017-12-09T12:10:36.597Z,5.60
2017-12-09T12:13:04.949Z,5.50
2017-12-09T12:15:33.258Z,5.50
2017-12-09T12:18:01.515Z,5.50
2017-12-09T12:20:29.764Z,5.50
2017-12-09T12:22:58.088Z,5.70
2017-12-09T12:25:26.357Z,5.70
2017-12-09T12:27:54.654Z,5.30
2017-12-09T12:30:22.916Z,5.30
2017-12-09T12:32:51.195Z,5.50
2017-12-09T12:35:21.351Z,5.50
2017-12-09T12:37:49.607Z,5.60
2017-12-09T12:40:20.360Z,5.30
2017-12-09T12:42:48.621Z,5.70
2017-12-09T12:45:16.926Z,5.30
2017-12-09T12:47:45.192Z,5.50
2017-12-09T12:50:13.480Z,5.70
2017-12-09T12:52:41.777Z,5.30
2017-12-09T12:55:10.038Z,5.50
2017-12-09T12:57:39.691Z,5.60
2017-12-09T13:00:10.136Z,5.50
2017-12-09T13:02:41.506Z,5.50
2017-12-09T13:05:09.760Z,5.50
2017-12-09T13:07:38.079Z,5.60
2017-12-09T13:10:07.253Z,5.30
2017-12-09T13:12:36.462Z,5.50
2017-12-09T13:15:04.758Z,5.50
2017-12-09T13:17:33.127Z,5.50
2017-12-09T13:20:02.138Z,5.50
2017-12-09T13:22:30.444Z,5.50
2017-12-09T13:24:58.720Z,5.50
2017-12-09T13:27:27.002Z,5.30
2017-12-09T13:29:55.280Z,5.40
2017-12-09T13:32:24.345Z,5.30
2017-12-09T13:34:52.596Z,5.30
2017-12-09T13:37:20.893Z,5.20
2017-12-09T13:39:49.137Z,5.20
2017-12-09T13:42:18.424Z,5.30
2017-12-09T13:44:46.732Z,5.30
2017-12-09T13:47:15.909Z,5.30
2017-12-09T13:49:44.961Z,5.30
2017-12-09T13:52:13.245Z,5.50
2017-12-09T13:54:41.528Z,5.30
2017-12-09T13:57:16.627Z,5.30
2017-12-09T13:59:50.024Z,5.30
2017-12-09T14:02:19.263Z,5.40
2017-12-09T14:04:47.541Z,5.70
2017-12-09T14:07:15.835Z,5.50
2017-12-09T14:09:44.215Z,5.20
2017-12-09T14:12:12.698Z,5.20
2017-12-09T14:14:40.948Z,5.20
2017-12-09T14:17:09.341Z,5.20
2017-12-09T14:19:37.613Z,5.20
2017-12-09T14:22:05.908Z,5.20
2017-12-09T14:24:34.150Z,5.30
2017-12-09T14:27:02.429Z,5.20
2017-12-09T14:29:30.673Z,5.30
2017-12-09T14:31:58.975Z,5.50
2017-12-09T14:34:27.275Z,5.30
2017-12-09T14:36:55.570Z,5.30
2017-12-09T14:39:24.688Z,5.20
2017-12-09T14:41:53.577Z,5.30
2017-12-09T14:44:21.848Z,5.30
2017-12-09T14:46:50.153Z,5.30
2017-12-09T14:49:18.437Z,5.30
2017-12-09T14:51:46.702Z,5.30
2017-12-09T14:54:15.761Z,5.30
2017-12-09T14:56:44.912Z,5.30
2017-12-09T14:59:13.224Z,5.50
2017-12-09T15:01:41.498Z,5.40
2017-12-09T15:04:09.813Z,5.40
2017-12-09T15:06:38.076Z,5.00
2017-12-09T15:09:06.322Z,5.00
2017-12-09T15:11:34.584Z,5.10
2017-12-09T15:14:03.709Z,5.00
2017-12-09T15:16:31.970Z,5.20
2017-12-09T15:19:00.460Z,5.20
2017-12-09T15:21:28.945Z,5.30
2017-12-09T15:23:57.431Z,5.30
2017-12-09T15:26:26.653Z,5.20
2017-12-09T15:28:54.928Z,5.30
2017-12-09T15:31:23.210Z,5.30
2017-12-09T15:33:51.493Z,5.20
2017-12-09T15:36:19.737Z,5.30
2017-12-09T15:38:48.016Z,5.20
2017-12-09T15:41:16.857Z,5.30
2017-12-09T15:43:45.116Z,5.30
2017-12-09T15:46:13.389Z,5.20
2017-12-09T15:48:41.665Z,5.40
2017-12-09T15:51:09.928Z,5.30
2017-12-09T15:53:38.219Z,5.30
2017-12-09T15:56:06.488Z,5.20
2017-12-09T15:58:34.753Z,5.00
2017-12-09T16:01:03.008Z,5.20
2017-12-09T16:03:31.308Z,5.00
2017-12-09T16:06:00.918Z,5.10
2017-12-09T16:08:29.993Z,5.00
2017-12-09T16:10:58.298Z,5.20
2017-12-09T16:13:26.536Z,5.40
2017-12-09T16:15:54.785Z,5.00
2017-12-09T16:18:23.864Z,5.30
2017-12-09T16:20:52.205Z,5.30
2017-12-09T16:23:20.681Z,5.00
2017-12-09T16:25:49.708Z,5.30
2017-12-09T16:28:17.973Z,5.10
2017-12-09T16:30:46.253Z,5.10
2017-12-09T16:33:14.555Z,5.00
2017-12-09T16:35:42.835Z,5.30
2017-12-09T16:38:11.161Z,5.30
2017-12-09T16:40:39.424Z,5.10
2017-12-09T16:43:08.473Z,4.90
2017-12-09T16:45:37.808Z,5.20
2017-12-09T16:48:06.085Z,5.20
2017-12-09T16:50:34.360Z,5.30
2017-12-09T16:53:02.620Z,5.20
2017-12-09T16:55:30.889Z,5.10
2017-12-09T16:57:59.156Z,5.10
2017-12-09T17:00:27.425Z,5.00
2017-12-09T17:02:55.668Z,5.00
2017-12-09T17:05:23.952Z,5.10
2017-12-09T17:07:52.270Z,5.20
2017-12-09T17:10:21.550Z,5.20
2017-12-09T17:12:49.840Z,5.00
2017-12-09T17:15:18.106Z,5.20
2017-12-09T17:17:46.373Z,5.00
2017-12-09T17:20:14.660Z,5.00
2017-12-09T17:22:42.978Z,4.90
2017-12-09T17:25:13.156Z,4.90
2017-12-09T17:27:42.401Z,4.90
2017-12-09T17:30:10.729Z,4.80
2017-12-09T17:32:39.009Z,5.00
2017-12-09T17:35:08.170Z,5.00
2017-12-09T17:37:38.199Z,5.00
2017-12-09T17:40:06.460Z,5.00
2017-12-09T17:42:35.543Z,5.20
2017-12-09T17:45:03.779Z,5.10
2017-12-09T17:47:32.077Z,5.00
2017-12-09T17:50:01.125Z,4.70
2017-12-09T17:52:29.916Z,4.70
2017-12-09T17:54:58.669Z,4.80
2017-12-09T17:57:26.937Z,4.80
2017-12-09T17:59:55.213Z,4.70
2017-12-09T18:02:23.499Z,5.00
2017-12-09T18:04:52.524Z,4.90
2017-12-09T18:07:21.583Z,5.10
2017-12-09T18:09:50.604Z,5.00
2017-12-09T18:12:18.881Z,5.00
2017-12-09T18:14:47.254Z,5.20
2017-12-09T18:17:15.704Z,5.10
2017-12-09T18:19:43.937Z,4.90
2017-12-09T18:22:12.220Z,4.70
2017-12-09T18:24:40.602Z,4.80
2017-12-09T18:27:08.912Z,4.80
2017-12-09T18:29:37.144Z,5.00
2017-12-09T18:32:05.433Z,4.80
2017-12-09T18:34:35.257Z,4.80
2017-12-09T18:37:03.518Z,4.70
2017-12-09T18:39:31.841Z,4.80
2017-12-09T18:42:00.862Z,4.80
2017-12-09T18:44:29.122Z,4.80
2017-12-09T18:46:58.333Z,4.90
2017-12-09T18:49:27.428Z,4.90
2017-12-09T18:51:55.677Z,4.90
2017-12-09T18:54:24.030Z,4.80
2017-12-09T18:56:52.371Z,4.80
2017-12-09T18:59:21.070Z,5.00
2017-12-09T19:01:49.350Z,4.90
2017-12-09T19:04:18.547Z,4.90
2017-12-09T19:06:46.797Z,4.80
2017-12-09T19:09:15.925Z,4.90
2017-12-09T19:11:44.177Z,4.80
2017-12-09T19:14:12.436Z,4.80
2017-12-09T19:16:41.468Z,4.70
2017-12-09T19:19:10.233Z,4.90
2017-12-09T19:21:38.568Z,4.80
2017-12-09T19:24:07.743Z,4.70
2017-12-09T19:26:36.009Z,4.80
2017-12-09T19:29:04.264Z,4.70
2017-12-09T19:31:32.553Z,4.80
2017-12-09T19:34:00.802Z,4.70
2017-12-09T19:36:29.662Z,4.70
2017-12-09T19:38:58.897Z,4.70
2017-12-09T19:41:27.149Z,4.90
2017-12-09T19:43:55.513Z,4.60
2017-12-09T19:46:23.797Z,4.60
2017-12-09T19:48:53.056Z,4.80
2017-12-09T19:51:21.322Z,4.80
2017-12-09T19:53:49.603Z,4.80
2017-12-09T19:56:17.857Z,4.70
2017-12-09T19:58:46.162Z,4.50
2017-12-09T20:01:14.423Z,4.60
2017-12-09T20:03:42.676Z,4.70
2017-12-09T20:06:10.980Z,4.60
2017-12-09T20:08:40.096Z,4.50
2017-12-09T20:11:08.395Z,4.50
2017-12-09T20:13:36.649Z,4.60
2017-12-09T20:16:04.963Z,4.50
2017-12-09T20:18:33.243Z,4.70
2017-12-09T20:21:01.521Z,4.50
2017-12-09T20:23:29.826Z,4.50
2017-12-09T20:25:58.093Z,4.60
2017-12-09T20:28:27.194Z,4.50
2017-12-09T20:30:55.468Z,4.50
2017-12-09T20:33:23.724Z,4.50
2017-12-09T20:35:53.593Z,4.40
2017-12-09T20:38:21.860Z,4.50
2017-12-09T20:40:50.122Z,4.50
2017-12-09T20:43:18.421Z,4.50
2017-12-09T20:45:46.692Z,4.60
2017-12-09T20:48:15.006Z,4.80
2017-12-09T20:50:45.791Z,4.70
2017-12-09T20:53:14.080Z,4.60
2017-12-09T20:55:42.677Z,4.60
2017-12-09T20:58:10.937Z,4.50
2017-12-09T21:00:39.261Z,4.50
2017-12-09T21:03:07.558Z,4.70
2017-12-09T21:05:35.865Z,4.50
2017-12-09T21:08:04.141Z,4.70
2017-12-09T21:10:32.426Z,4.50
2017-12-09T21:13:02.334Z,4.60
2017-12-09T21:15:30.570Z,4.50
2017-12-09T21:17:58.838Z,4.60
2017-12-09T21:20:27.360Z,4.50
2017-12-09T21:22:55.610Z,4.60
2017-12-09T21:25:23.907Z,4.60
2017-12-09T21:27:53.126Z,4.50
2017-12-09T21:30:21.492Z,5.00
2017-12-09T21:32:49.767Z,4.80
2017-12-09T21:35:18.082Z,4.70
2017-12-09T21:37:46.339Z,4.90
2017-12-09T21:40:14.594Z,4.80
2017-12-09T21:42:42.845Z,4.70
2017-12-09T21:45:11.175Z,4.70
2017-12-09T21:47:39.617Z,4.80
2017-12-09T21:50:07.910Z,4.60
2017-12-09T21:52:37.144Z,4.60
2017-12-09T21:55:07.061Z,4.70
2017-12-09T21:57:36.148Z,4.60
2017-12-09T22:00:04.422Z,4.60
2017-12-09T22:02:32.684Z,4.50
2017-12-09T22:05:01.005Z,4.90
2017-12-09T22:07:29.298Z,4.80
2017-12-09T22:09:58.188Z,4.60
2017-12-09T22:12:27.361Z,4.50
2017-12-09T22:14:55.668Z,4.50
2017-12-09T22:17:24.161Z,4.40
2017-12-09T22:19:52.585Z,4.40
2017-12-09T22:22:20.879Z,4.40
2017-12-09T22:24:49.145Z,4.40
2017-12-09T22:27:17.416Z,4.30
2017-12-09T22:29:45.764Z,4.40
2017-12-09T22:32:14.017Z,4.60
2017-12-09T22:34:42.311Z,4.40
2017-12-09T22:37:11.529Z,4.60
2017-12-09T22:39:40.017Z,4.50
2017-12-09T22:42:09.012Z,4.50
2017-12-09T22:44:38.045Z,4.60
2017-12-09T22:47:06.339Z,4.60
2017-12-09T22:49:34.642Z,4.60
2017-12-09T22:52:02.902Z,4.60
2017-12-09T22:54:31.189Z,4.60
2017-12-09T22:56:59.451Z,4.50
2017-12-09T22:59:27.749Z,4.40
2017-12-09T23:01:56.030Z,4.60
2017-12-09T23:04:25.963Z,4.50
2017-12-09T23:06:55.103Z,4.60
2017-12-09T23:09:23.343Z,4.60
2017-12-09T23:11:51.693Z,4.60
2017-12-09T23:14:20.021Z,4.60
2017-12-09T23:16:48.275Z,4.70
2017-12-09T23:19:16.552Z,4.80
2017-12-09T23:21:45.245Z,4.50
2017-12-09T23:24:13.692Z,4.60
2017-12-09T23:26:42.009Z,4.60
2017-12-09T23:29:11.211Z,4.50
2017-12-09T23:31:39.784Z,4.50
2017-12-09T23:34:08.085Z,4.60
2017-12-09T23:36:37.224Z,4.60
2017-12-09T23:39:05.481Z,4.50
2017-12-09T23:41:35.826Z,4.80
2017-12-09T23:44:04.109Z,4.80
2017-12-09T23:46:32.373Z,4.60
2017-12-09T23:49:01.431Z,4.60
2017-12-09T23:51:29.710Z,4.50
2017-12-09T23:53:57.968Z,4.50
2017-12-09T23:56:26.349Z,4.60
2017-12-09T23:58:55.516Z,4.50
